createdAt,value
2022-12-12T00:00:24.178Z,8.34
2022-12-12T00:01:25.694Z,8.31
2022-12-12T00:02:27.326Z,8.35
2022-12-12T00:03:29.098Z,8.48
2022-12-12T00:04:30.683Z,8.49
2022-12-12T00:05:32.203Z,8.41
2022-12-12T00:06:33.773Z,8.36
2022-12-12T00:07:35.705Z,8.33
2022-12-12T00:08:37.900Z,8.33
2022-12-12T00:09:39.480Z,8.33
2022-12-12T00:10:41.046Z,8.36
2022-12-12T00:11:42.642Z,8.37
2022-12-12T00:12:44.259Z,8.34
2022-12-12T00:13:46.308Z,8.33
2022-12-12T00:14:47.906Z,8.23
2022-12-12T00:15:49.852Z,8.24
2022-12-12T00:16:51.475Z,8.22
2022-12-12T00:17:53.158Z,8.09
2022-12-12T00:18:55.041Z,8.06
2022-12-12T00:19:56.606Z,8.03
2022-12-12T00:20:58.954Z,7.97
2022-12-12T00:22:00.484Z,7.94
2022-12-12T00:23:02.067Z,7.94
2022-12-12T00:24:03.767Z,7.93
2022-12-12T00:25:06.044Z,8.02
2022-12-12T00:26:14.995Z,8.09
2022-12-12T00:27:16.531Z,7.94
2022-12-12T00:28:18.082Z,7.92
2022-12-12T00:29:19.624Z,7.87
2022-12-12T00:30:21.205Z,7.85
2022-12-12T00:31:23.280Z,7.72
2022-12-12T00:32:24.871Z,7.67
2022-12-12T00:33:26.505Z,7.73
2022-12-12T00:34:28.047Z,7.76
2022-12-12T00:35:29.557Z,7.74
2022-12-12T00:36:32.100Z,7.61
2022-12-12T00:37:33.771Z,7.50
2022-12-12T00:38:35.449Z,7.44
2022-12-12T00:39:37.044Z,7.45
2022-12-12T00:40:38.592Z,7.57
2022-12-12T00:41:40.175Z,7.45
2022-12-12T00:42:41.756Z,7.31
2022-12-12T00:43:43.450Z,7.27
2022-12-12T00:44:44.967Z,7.28
2022-12-12T00:45:46.557Z,7.39
2022-12-12T00:46:48.175Z,7.52
2022-12-12T00:47:49.829Z,7.56
2022-12-12T00:48:55.005Z,7.66
2022-12-12T00:49:56.608Z,7.76
2022-12-12T00:50:58.469Z,7.83
2022-12-12T00:51:59.993Z,7.90
2022-12-12T00:53:01.651Z,7.98
2022-12-12T00:54:03.249Z,8.00
2022-12-12T00:55:05.354Z,7.90
2022-12-12T00:56:07.216Z,7.96
2022-12-12T00:57:08.873Z,8.01
2022-12-12T00:58:10.654Z,8.09
2022-12-12T00:59:12.210Z,8.19
2022-12-12T01:00:14.562Z,8.23
2022-12-12T01:01:19.199Z,8.27
2022-12-12T01:02:26.398Z,8.21
2022-12-12T01:03:31.389Z,7.97
2022-12-12T01:04:33.433Z,7.62
2022-12-12T01:05:35.373Z,7.42
2022-12-12T01:06:36.948Z,7.45
2022-12-12T01:07:38.466Z,7.63
2022-12-12T01:08:40.770Z,7.76
2022-12-12T01:09:42.341Z,7.75
2022-12-12T01:10:43.939Z,7.70
2022-12-12T01:11:45.607Z,7.71
2022-12-12T01:12:47.187Z,7.76
2022-12-12T01:13:51.325Z,7.85
2022-12-12T01:14:53.078Z,7.83
2022-12-12T01:15:54.768Z,7.78
2022-12-12T01:16:56.398Z,7.77
2022-12-12T01:17:57.968Z,7.80
2022-12-12T01:18:59.692Z,7.80
2022-12-12T01:20:02.883Z,7.78
2022-12-12T01:21:07.907Z,7.69
2022-12-12T01:22:09.950Z,7.58
2022-12-12T01:23:11.684Z,7.51
2022-12-12T01:24:13.202Z,7.52
2022-12-12T01:25:16.145Z,7.54
2022-12-12T01:26:20.750Z,7.57
2022-12-12T01:27:22.668Z,7.61
2022-12-12T01:28:24.178Z,7.64
2022-12-12T01:29:25.784Z,7.65
2022-12-12T01:30:27.718Z,7.66
2022-12-12T01:31:29.371Z,7.63
2022-12-12T01:32:30.958Z,7.58
2022-12-12T01:33:32.728Z,7.54
2022-12-12T01:34:34.230Z,7.47
2022-12-12T01:35:35.737Z,7.42
2022-12-12T01:36:37.410Z,7.36
2022-12-12T01:37:40.418Z,7.37
2022-12-12T01:38:46.329Z,7.35
2022-12-12T01:39:47.952Z,7.36
2022-12-12T01:40:49.584Z,7.40
2022-12-12T01:41:51.152Z,7.44
2022-12-12T01:42:53.636Z,7.51
2022-12-12T01:43:55.370Z,7.60
2022-12-12T01:44:56.937Z,7.66
2022-12-12T01:45:58.585Z,7.71
2022-12-12T01:47:00.206Z,7.71
2022-12-12T01:48:05.219Z,7.75
2022-12-12T01:49:16.147Z,7.77
2022-12-12T01:50:17.706Z,7.79
2022-12-12T01:51:22.211Z,7.76
2022-12-12T01:52:28.432Z,7.79
2022-12-12T01:53:32.987Z,7.80
2022-12-12T01:54:40.758Z,7.86
2022-12-12T01:55:42.650Z,7.86
2022-12-12T01:56:46.089Z,7.89
2022-12-12T01:57:52.176Z,7.94
2022-12-12T01:58:55.849Z,7.95
2022-12-12T01:59:59.665Z,7.98
2022-12-12T02:01:02.132Z,8.01
2022-12-12T02:02:04.741Z,8.03
2022-12-12T02:03:06.672Z,8.09
2022-12-12T02:04:09.794Z,8.11
2022-12-12T02:05:28.127Z,7.92
2022-12-12T02:06:30.338Z,7.70
2022-12-12T02:07:31.970Z,7.64
2022-12-12T02:08:35.018Z,7.57
2022-12-12T02:09:37.370Z,7.48
2022-12-12T02:10:39.581Z,7.26
2022-12-12T02:11:48.342Z,6.98
2022-12-12T02:12:49.986Z,6.91
2022-12-12T02:13:51.646Z,6.73
2022-12-12T02:14:53.859Z,6.59
2022-12-12T02:16:10.664Z,6.49
2022-12-12T02:17:38.216Z,6.51
2022-12-12T02:18:51.905Z,6.71
2022-12-12T02:20:25.577Z,6.86
2022-12-12T02:21:40.488Z,7.05
2022-12-12T02:23:16.104Z,7.13
2022-12-12T02:25:02.730Z,7.19
2022-12-12T02:26:19.185Z,7.27
2022-12-12T02:28:02.917Z,7.21
2022-12-12T02:29:04.387Z,7.19
2022-12-12T02:30:05.899Z,7.27
2022-12-12T02:31:34.955Z,7.34
2022-12-12T02:33:30.708Z,7.50
2022-12-12T02:34:54.739Z,7.59
2022-12-12T02:36:11.482Z,7.61
2022-12-12T02:37:24.799Z,7.64
2022-12-12T02:38:36.745Z,7.72
2022-12-12T02:40:10.417Z,7.78
2022-12-12T02:41:25.260Z,7.81
2022-12-12T02:42:41.191Z,7.85
2022-12-12T02:43:59.333Z,7.91
2022-12-12T02:45:06.901Z,7.96
2022-12-12T02:46:24.332Z,8.00
2022-12-12T02:47:31.697Z,8.06
2022-12-12T02:48:40.465Z,8.05
2022-12-12T02:49:50.001Z,8.00
2022-12-12T02:50:54.434Z,7.98
2022-12-12T02:51:58.333Z,7.93
2022-12-12T02:53:00.513Z,7.89
2022-12-12T02:54:04.630Z,7.88
2022-12-12T02:55:06.775Z,7.77
2022-12-12T02:56:45.930Z,7.68
2022-12-12T02:57:48.836Z,7.63
2022-12-12T02:58:50.392Z,7.65
2022-12-12T02:59:55.734Z,7.68
2022-12-12T03:01:15.490Z,7.59
2022-12-12T03:02:41.463Z,7.50
2022-12-12T03:04:09.818Z,7.45
2022-12-12T03:05:48.894Z,7.55
2022-12-12T03:07:21.847Z,7.45
2022-12-12T03:08:36.107Z,7.25
2022-12-12T03:10:04.610Z,7.24
2022-12-12T03:11:14.674Z,7.18
2022-12-12T03:12:31.840Z,7.16
2022-12-12T03:14:21.369Z,7.10
2022-12-12T03:15:28.029Z,7.13
2022-12-12T03:16:43.725Z,6.96
2022-12-12T03:17:53.929Z,6.83
2022-12-12T03:19:16.325Z,6.65
2022-12-12T03:20:25.696Z,6.40
2022-12-12T03:21:50.066Z,6.41
2022-12-12T03:23:09.259Z,6.55
2022-12-12T03:24:39.837Z,6.72
2022-12-12T03:25:54.043Z,6.83
2022-12-12T03:27:02.922Z,6.95
2022-12-12T03:28:12.436Z,7.05
2022-12-12T03:29:17.828Z,7.11
2022-12-12T03:30:20.177Z,7.15
2022-12-12T03:31:28.466Z,7.20
2022-12-12T03:32:38.472Z,7.28
2022-12-12T03:33:47.429Z,7.35
2022-12-12T03:35:14.301Z,7.46
2022-12-12T03:36:18.943Z,7.48
2022-12-12T03:37:30.817Z,7.52
2022-12-12T03:38:36.712Z,7.54
2022-12-12T03:39:53.498Z,7.46
2022-12-12T03:41:01.945Z,7.37
2022-12-12T03:42:12.660Z,7.28
2022-12-12T03:43:21.713Z,7.25
2022-12-12T03:44:30.962Z,7.23
2022-12-12T03:46:03.489Z,7.17
2022-12-12T03:47:11.445Z,7.04
2022-12-12T03:48:25.787Z,7.03
2022-12-12T03:49:39.311Z,6.99
2022-12-12T03:50:58.195Z,7.02
2022-12-12T03:52:06.589Z,7.06
2022-12-12T03:53:17.466Z,7.14
2022-12-12T03:54:27.556Z,7.21
2022-12-12T03:55:45.830Z,7.24
2022-12-12T03:56:47.505Z,7.28
2022-12-12T03:57:57.367Z,7.29
2022-12-12T03:59:10.927Z,7.31
2022-12-12T04:00:15.212Z,7.39
2022-12-12T04:01:21.167Z,7.35
2022-12-12T04:02:44.282Z,6.95
2022-12-12T04:03:58.773Z,6.76
2022-12-12T04:05:18.733Z,6.70
2022-12-12T04:06:36.299Z,6.38
2022-12-12T04:07:49.706Z,6.22
2022-12-12T04:09:11.221Z,6.31
2022-12-12T04:10:31.705Z,6.45
2022-12-12T04:12:00.683Z,6.57
2022-12-12T04:13:08.388Z,6.67
2022-12-12T04:14:48.130Z,6.71
2022-12-12T04:16:04.694Z,6.77
2022-12-12T04:17:08.906Z,6.80
2022-12-12T04:18:22.431Z,6.86
2022-12-12T04:20:18.297Z,6.90
2022-12-12T04:21:59.776Z,6.86
2022-12-12T04:23:22.855Z,6.77
2022-12-12T04:24:30.304Z,6.73
2022-12-12T04:26:05.658Z,6.60
2022-12-12T04:27:25.718Z,6.69
2022-12-12T04:28:30.511Z,6.80
2022-12-12T04:29:45.755Z,6.87
2022-12-12T04:30:47.399Z,6.85
2022-12-12T04:31:56.480Z,6.86
2022-12-12T04:33:14.346Z,6.97
2022-12-12T04:34:35.102Z,7.03
2022-12-12T04:35:41.987Z,7.00
2022-12-12T04:36:47.278Z,7.04
2022-12-12T04:37:52.775Z,7.12
2022-12-12T04:38:56.075Z,7.18
2022-12-12T04:40:01.554Z,7.16
2022-12-12T04:41:06.873Z,7.23
2022-12-12T04:42:10.770Z,7.27
2022-12-12T04:43:17.999Z,7.24
2022-12-12T04:44:22.593Z,7.01
2022-12-12T04:45:38.383Z,6.93
2022-12-12T04:46:42.081Z,6.85
2022-12-12T04:47:46.303Z,6.80
2022-12-12T04:48:53.778Z,6.88
2022-12-12T04:49:58.172Z,6.95
2022-12-12T04:51:01.575Z,7.02
2022-12-12T04:52:07.582Z,7.11
2022-12-12T04:53:18.347Z,7.20
2022-12-12T04:54:49.460Z,7.29
2022-12-12T04:55:56.388Z,7.22
2022-12-12T04:57:02.109Z,6.97
2022-12-12T04:58:05.421Z,6.73
2022-12-12T04:59:08.445Z,6.60
2022-12-12T05:00:12.710Z,6.52
2022-12-12T05:01:36.586Z,6.56
2022-12-12T05:02:47.670Z,6.58
2022-12-12T05:04:13.196Z,6.78
2022-12-12T05:05:25.727Z,6.89
2022-12-12T05:06:48.857Z,6.99
2022-12-12T05:07:57.973Z,7.05
2022-12-12T05:09:02.150Z,7.08
2022-12-12T05:10:06.944Z,7.14
2022-12-12T05:11:08.885Z,7.17
2022-12-12T05:12:10.737Z,7.19
2022-12-12T05:13:18.908Z,7.26
2022-12-12T05:14:20.447Z,7.31
2022-12-12T05:15:22.145Z,7.35
2022-12-12T05:16:35.281Z,7.39
2022-12-12T05:17:43.864Z,7.25
2022-12-12T05:18:46.214Z,7.22
2022-12-12T05:19:47.809Z,7.17
2022-12-12T05:20:49.798Z,7.20
2022-12-12T05:21:51.323Z,7.25
2022-12-12T05:22:52.857Z,7.21
2022-12-12T05:23:54.396Z,7.06
2022-12-12T05:24:55.959Z,7.13
2022-12-12T05:25:57.519Z,7.20
2022-12-12T05:26:59.492Z,7.25
2022-12-12T05:28:01.011Z,7.27
2022-12-12T05:29:07.225Z,7.31
2022-12-12T05:30:09.935Z,7.32
2022-12-12T05:31:11.526Z,7.34
2022-12-12T05:32:13.114Z,7.36
2022-12-12T05:33:14.699Z,7.36
2022-12-12T05:34:16.323Z,7.41
2022-12-12T05:35:18.200Z,7.43
2022-12-12T05:36:20.241Z,7.47
2022-12-12T05:37:21.819Z,7.51
2022-12-12T05:38:23.331Z,7.56
2022-12-12T05:39:24.855Z,7.58
2022-12-12T05:40:26.436Z,7.61
2022-12-12T05:41:28.071Z,7.60
2022-12-12T05:42:29.764Z,7.54
2022-12-12T05:43:31.881Z,7.51
2022-12-12T05:44:33.415Z,7.55
2022-12-12T05:45:35.084Z,7.51
2022-12-12T05:46:36.619Z,7.31
2022-12-12T05:47:38.159Z,7.26
2022-12-12T05:48:39.769Z,7.33
2022-12-12T05:49:41.314Z,7.38
2022-12-12T05:50:42.967Z,7.41
2022-12-12T05:51:45.134Z,7.37
2022-12-12T05:52:46.764Z,7.17
2022-12-12T05:53:48.373Z,7.06
2022-12-12T05:54:50.313Z,7.02
2022-12-12T05:55:52.074Z,7.12
2022-12-12T05:56:53.613Z,7.18
2022-12-12T05:57:55.125Z,7.22
2022-12-12T05:58:56.655Z,7.23
2022-12-12T05:59:58.210Z,7.28
2022-12-12T06:01:03.208Z,7.31
2022-12-12T06:02:05.156Z,7.34
2022-12-12T06:03:06.724Z,7.33
2022-12-12T06:04:08.460Z,7.20
2022-12-12T06:05:10.397Z,7.18
2022-12-12T06:06:12.212Z,7.16
2022-12-12T06:07:13.709Z,7.17
2022-12-12T06:08:15.387Z,7.05
2022-12-12T06:09:16.986Z,6.81
2022-12-12T06:10:18.581Z,6.87
2022-12-12T06:11:20.129Z,6.91
2022-12-12T06:12:22.299Z,6.91
2022-12-12T06:13:23.940Z,6.68
2022-12-12T06:14:26.207Z,6.69
2022-12-12T06:15:27.898Z,6.69
2022-12-12T06:16:29.537Z,6.75
2022-12-12T06:17:33.291Z,6.81
2022-12-12T06:18:36.154Z,6.84
2022-12-12T06:19:37.704Z,6.91
2022-12-12T06:20:39.291Z,6.95
2022-12-12T06:21:40.882Z,6.99
2022-12-12T06:22:42.440Z,6.86
2022-12-12T06:23:44.211Z,6.86
2022-12-12T06:24:45.768Z,6.93
2022-12-12T06:25:50.664Z,6.89
2022-12-12T06:26:52.256Z,6.36
2022-12-12T06:27:53.834Z,5.90
2022-12-12T06:28:56.051Z,5.67
2022-12-12T06:29:57.568Z,5.65
2022-12-12T06:30:59.187Z,5.70
2022-12-12T06:32:00.855Z,5.84
2022-12-12T06:33:02.502Z,5.95
2022-12-12T06:34:04.088Z,6.05
2022-12-12T06:35:06.051Z,6.12
2022-12-12T06:36:11.862Z,6.22
2022-12-12T06:37:17.226Z,6.23
2022-12-12T06:38:19.254Z,6.28
2022-12-12T06:39:20.802Z,6.37
2022-12-12T06:40:22.419Z,6.46
2022-12-12T06:41:25.812Z,6.36
2022-12-12T06:42:27.410Z,6.21
2022-12-12T06:43:28.924Z,6.10
2022-12-12T06:44:30.702Z,6.11
2022-12-12T06:45:32.265Z,6.17
2022-12-12T06:46:34.083Z,6.12
2022-12-12T06:47:35.715Z,5.93
2022-12-12T06:48:37.404Z,5.78
2022-12-12T06:49:38.995Z,5.80
2022-12-12T06:50:41.814Z,5.95
2022-12-12T06:51:44.577Z,6.02
2022-12-12T06:52:46.181Z,6.03
2022-12-12T06:53:48.648Z,5.90
2022-12-12T06:54:50.261Z,5.87
2022-12-12T06:55:51.833Z,5.80
2022-12-12T06:56:53.379Z,5.92
2022-12-12T06:57:54.897Z,6.09
2022-12-12T06:58:59.151Z,6.25
2022-12-12T07:00:00.894Z,6.36
2022-12-12T07:01:02.827Z,6.45
2022-12-12T07:02:04.527Z,6.60
2022-12-12T07:03:06.159Z,6.68
2022-12-12T07:04:07.727Z,6.79
2022-12-12T07:05:09.484Z,6.87
2022-12-12T07:06:11.324Z,6.97
2022-12-12T07:07:12.921Z,7.06
2022-12-12T07:08:16.260Z,7.13
2022-12-12T07:09:19.096Z,7.26
2022-12-12T07:10:21.565Z,7.32
2022-12-12T07:11:25.010Z,7.39
2022-12-12T07:12:26.621Z,7.35
2022-12-12T07:13:28.149Z,7.24
2022-12-12T07:14:29.686Z,7.22
2022-12-12T07:15:31.609Z,7.12
2022-12-12T07:16:34.271Z,6.95
2022-12-12T07:17:35.875Z,7.06
2022-12-12T07:18:37.840Z,7.16
2022-12-12T07:19:39.468Z,7.25
2022-12-12T07:20:42.647Z,7.36
2022-12-12T07:21:44.827Z,7.35
2022-12-12T07:22:46.866Z,7.36
2022-12-12T07:23:48.509Z,7.41
2022-12-12T07:24:52.638Z,7.48
2022-12-12T07:25:54.136Z,7.46
2022-12-12T07:26:55.652Z,7.52
2022-12-12T07:27:57.486Z,7.47
2022-12-12T07:28:59.091Z,7.43
2022-12-12T07:30:00.916Z,7.48
2022-12-12T07:31:07.037Z,7.48
2022-12-12T07:32:08.651Z,7.45
2022-12-12T07:33:11.455Z,7.41
2022-12-12T07:34:13.034Z,7.26
2022-12-12T07:35:14.953Z,7.21
2022-12-12T07:36:17.086Z,7.27
2022-12-12T07:37:18.594Z,7.35
2022-12-12T07:38:20.149Z,7.41
2022-12-12T07:39:21.687Z,7.49
2022-12-12T07:40:23.568Z,7.57
2022-12-12T07:41:25.206Z,7.62
2022-12-12T07:42:26.774Z,7.70
2022-12-12T07:43:28.342Z,7.74
2022-12-12T07:44:29.891Z,7.75
2022-12-12T07:45:31.722Z,7.74
2022-12-12T07:46:33.374Z,7.59
2022-12-12T07:47:35.306Z,7.26
2022-12-12T07:48:37.209Z,6.92
2022-12-12T07:49:38.845Z,6.94
2022-12-12T07:50:41.782Z,6.93
2022-12-12T07:51:48.761Z,6.95
2022-12-12T07:52:50.823Z,7.09
2022-12-12T07:53:52.572Z,7.20
2022-12-12T07:54:54.274Z,7.25
2022-12-12T07:55:56.548Z,7.10
2022-12-12T07:56:59.742Z,6.68
2022-12-12T07:58:01.284Z,6.49
2022-12-12T07:59:02.823Z,6.61
2022-12-12T08:00:09.602Z,6.75
2022-12-12T08:01:17.671Z,6.82
2022-12-12T08:02:19.297Z,6.94
2022-12-12T08:03:20.913Z,7.07
2022-12-12T08:04:22.517Z,7.19
2022-12-12T08:05:24.870Z,7.29
2022-12-12T08:06:26.545Z,7.41
2022-12-12T08:07:28.058Z,7.50
2022-12-12T08:08:29.633Z,7.58
2022-12-12T08:09:31.600Z,7.63
2022-12-12T08:10:33.172Z,7.64
2022-12-12T08:11:34.914Z,7.52
2022-12-12T08:12:36.663Z,7.56
2022-12-12T08:13:39.655Z,7.69
2022-12-12T08:14:41.221Z,7.82
2022-12-12T08:15:43.301Z,7.92
2022-12-12T08:16:44.910Z,8.02
2022-12-12T08:17:46.821Z,8.08
2022-12-12T08:18:49.395Z,8.18
2022-12-12T08:19:51.511Z,8.23
2022-12-12T08:20:53.067Z,8.34
2022-12-12T08:21:54.697Z,8.35
2022-12-12T08:22:56.208Z,8.18
2022-12-12T08:23:59.401Z,8.04
2022-12-12T08:25:02.065Z,8.04
2022-12-12T08:26:09.722Z,8.02
2022-12-12T08:27:15.506Z,8.09
2022-12-12T08:28:18.517Z,8.14
2022-12-12T08:29:20.373Z,8.18
2022-12-12T08:30:22.026Z,8.17
2022-12-12T08:31:24.412Z,8.16
2022-12-12T08:32:26.058Z,8.14
2022-12-12T08:33:28.218Z,8.19
2022-12-12T08:34:29.980Z,8.27
2022-12-12T08:35:32.533Z,8.42
2022-12-12T08:36:35.588Z,8.44
2022-12-12T08:37:37.113Z,8.49
2022-12-12T08:38:38.969Z,8.57
2022-12-12T08:39:40.516Z,8.58
2022-12-12T08:40:42.108Z,8.72
2022-12-12T08:41:50.777Z,8.86
2022-12-12T08:42:52.330Z,8.93
2022-12-12T08:43:53.920Z,9.01
2022-12-12T08:44:55.490Z,9.05
2022-12-12T08:46:01.757Z,9.12
2022-12-12T08:47:03.459Z,9.13
2022-12-12T08:48:06.714Z,9.15
2022-12-12T08:49:09.953Z,9.18
2022-12-12T08:50:12.273Z,9.21
2022-12-12T08:51:14.953Z,9.13
2022-12-12T08:52:16.479Z,8.98
2022-12-12T08:53:18.003Z,9.08
2022-12-12T08:54:19.661Z,9.19
2022-12-12T08:55:21.353Z,9.31
2022-12-12T08:56:23.879Z,9.26
2022-12-12T08:57:26.157Z,9.03
2022-12-12T08:58:27.857Z,8.94
2022-12-12T08:59:29.561Z,8.95
2022-12-12T09:00:31.146Z,8.97
2022-12-12T09:01:32.890Z,9.01
2022-12-12T09:02:34.650Z,9.08
2022-12-12T09:03:36.289Z,9.28
2022-12-12T09:04:38.103Z,9.50
2022-12-12T09:05:44.491Z,9.70
2022-12-12T09:06:46.147Z,9.79
2022-12-12T09:07:47.864Z,9.79
2022-12-12T09:08:50.530Z,9.77
2022-12-12T09:09:52.053Z,9.84
2022-12-12T09:10:53.668Z,9.95
2022-12-12T09:11:55.235Z,9.92
2022-12-12T09:12:56.832Z,10.10
2022-12-12T09:13:58.387Z,10.20
2022-12-12T09:14:59.984Z,10.28
2022-12-12T09:16:01.688Z,10.36
2022-12-12T09:17:03.351Z,10.41
2022-12-12T09:18:05.089Z,10.51
2022-12-12T09:19:06.691Z,10.60
2022-12-12T09:20:10.103Z,10.72
2022-12-12T09:21:11.742Z,10.73
2022-12-12T09:22:13.273Z,10.80
2022-12-12T09:23:14.833Z,10.88
2022-12-12T09:24:16.858Z,10.87
2022-12-12T09:25:19.329Z,10.81
2022-12-12T09:26:20.940Z,10.89
2022-12-12T09:27:22.491Z,10.91
2022-12-12T09:28:26.099Z,10.96
2022-12-12T09:29:27.654Z,11.08
2022-12-12T09:30:29.250Z,11.09
2022-12-12T09:31:30.914Z,10.99
2022-12-12T09:32:32.550Z,10.77
2022-12-12T09:33:34.957Z,10.64
2022-12-12T09:34:39.586Z,10.77
2022-12-12T09:35:41.426Z,10.94
2022-12-12T09:36:43.008Z,11.10
2022-12-12T09:37:44.601Z,11.13
2022-12-12T09:38:46.208Z,10.93
2022-12-12T09:39:47.889Z,10.97
2022-12-12T09:40:54.832Z,11.16
2022-12-12T09:41:56.654Z,11.32
2022-12-12T09:42:58.896Z,11.33
2022-12-12T09:44:08.318Z,11.16
2022-12-12T09:45:09.989Z,11.10
2022-12-12T09:46:22.504Z,10.99
2022-12-12T09:47:36.870Z,10.91
2022-12-12T09:48:44.911Z,10.78
2022-12-12T09:49:53.384Z,10.84
2022-12-12T09:50:55.245Z,10.99
2022-12-12T09:51:57.836Z,11.11
2022-12-12T09:53:04.348Z,11.15
2022-12-12T09:54:06.518Z,11.25
2022-12-12T09:55:34.094Z,11.38
2022-12-12T09:56:52.485Z,11.37
2022-12-12T09:58:09.617Z,11.30
2022-12-12T09:59:27.521Z,11.34
2022-12-12T10:00:34.695Z,11.50
2022-12-12T10:01:39.365Z,11.61
2022-12-12T10:03:15.255Z,11.58
2022-12-12T10:04:37.362Z,11.59
2022-12-12T10:06:13.409Z,11.39
2022-12-12T10:07:17.779Z,11.34
2022-12-12T10:08:54.346Z,11.53
2022-12-12T10:10:14.463Z,11.61
2022-12-12T10:11:44.219Z,11.70
2022-12-12T10:12:47.869Z,11.59
2022-12-12T10:13:49.530Z,11.54
2022-12-12T10:15:32.267Z,11.62
2022-12-12T10:16:34.205Z,11.73
2022-12-12T10:17:41.479Z,11.87
2022-12-12T10:18:47.061Z,12.01
2022-12-12T10:19:52.078Z,12.10
2022-12-12T10:20:57.522Z,12.11
2022-12-12T10:22:14.995Z,12.22
2022-12-12T10:23:27.664Z,12.42
2022-12-12T10:24:52.106Z,12.39
2022-12-12T10:25:59.474Z,12.40
2022-12-12T10:27:10.434Z,12.53
2022-12-12T10:28:19.764Z,12.56
2022-12-12T10:29:25.019Z,12.53
2022-12-12T10:30:30.289Z,12.47
2022-12-12T10:32:00.216Z,12.54
2022-12-12T10:33:19.974Z,12.63
2022-12-12T10:34:21.479Z,12.64
2022-12-12T10:35:38.815Z,12.76
2022-12-12T10:37:14.045Z,12.79
2022-12-12T10:38:49.610Z,12.90
2022-12-12T10:40:12.292Z,13.00
2022-12-12T10:41:31.964Z,13.03
2022-12-12T10:42:39.449Z,12.81
2022-12-12T10:43:53.507Z,12.76
2022-12-12T10:45:32.663Z,12.88
2022-12-12T10:46:58.947Z,12.99
2022-12-12T10:48:01.159Z,12.95
2022-12-12T10:49:13.827Z,12.97
2022-12-12T10:50:27.016Z,13.04
2022-12-12T10:51:29.513Z,13.14
2022-12-12T10:52:31.065Z,13.20
2022-12-12T10:53:34.592Z,13.16
2022-12-12T10:54:44.319Z,13.16
2022-12-12T10:56:00.950Z,13.18
2022-12-12T10:57:25.016Z,13.12
2022-12-12T10:58:35.415Z,13.22
2022-12-12T11:00:07.416Z,13.23
2022-12-12T11:01:38.427Z,13.30
2022-12-12T11:02:44.447Z,13.20
2022-12-12T11:03:49.033Z,13.15
2022-12-12T11:04:59.347Z,13.11
2022-12-12T11:06:06.798Z,13.09
2022-12-12T11:07:20.823Z,13.04
2022-12-12T11:08:25.012Z,13.06
2022-12-12T11:09:28.739Z,13.15
2022-12-12T11:10:38.117Z,13.20
2022-12-12T11:11:39.733Z,13.20
2022-12-12T11:12:41.333Z,13.23
2022-12-12T11:13:52.301Z,13.12
2022-12-12T11:15:01.084Z,13.20
2022-12-12T11:16:13.671Z,13.37
2022-12-12T11:17:26.485Z,13.48
2022-12-12T11:18:29.275Z,13.48
2022-12-12T11:19:37.853Z,13.55
2022-12-12T11:21:07.835Z,13.57
2022-12-12T11:22:13.644Z,13.52
2022-12-12T11:23:22.611Z,13.53
2022-12-12T11:24:30.091Z,13.58
2022-12-12T11:25:33.315Z,13.65
2022-12-12T11:26:49.431Z,13.68
2022-12-12T11:27:52.823Z,13.63
2022-12-12T11:29:03.034Z,13.55
2022-12-12T11:30:08.074Z,13.56
2022-12-12T11:31:14.427Z,13.65
2022-12-12T11:32:27.793Z,13.71
2022-12-12T11:33:51.116Z,13.68
2022-12-12T11:34:58.283Z,13.74
2022-12-12T11:36:01.980Z,13.78
2022-12-12T11:37:03.614Z,13.68
2022-12-12T11:38:14.500Z,13.63
2022-12-12T11:39:27.069Z,13.57
2022-12-12T11:40:32.173Z,13.52
2022-12-12T11:41:57.219Z,13.47
2022-12-12T11:43:27.680Z,13.55
2022-12-12T11:44:35.579Z,13.71
2022-12-12T11:45:37.160Z,13.76
2022-12-12T11:46:38.710Z,13.76
2022-12-12T11:47:45.795Z,13.74
2022-12-12T11:48:47.432Z,13.83
2022-12-12T11:49:52.023Z,13.83
2022-12-12T11:50:53.630Z,13.74
2022-12-12T11:51:56.257Z,13.74
2022-12-12T11:53:01.660Z,13.84
2022-12-12T11:54:07.678Z,13.89
2022-12-12T11:55:17.277Z,13.81
2022-12-12T11:56:24.824Z,13.74
2022-12-12T11:57:46.605Z,13.71
2022-12-12T11:59:08.626Z,13.69
2022-12-12T12:00:14.576Z,13.63
2022-12-12T12:01:26.327Z,13.64
2022-12-12T12:02:48.928Z,13.57
2022-12-12T12:04:53.085Z,13.61
2022-12-12T12:05:55.166Z,13.59
2022-12-12T12:07:03.645Z,13.47
2022-12-12T12:08:26.225Z,13.42
2022-12-12T12:09:48.711Z,13.30
2022-12-12T12:11:05.259Z,13.33
2022-12-12T12:12:17.518Z,13.31
2022-12-12T12:13:25.157Z,13.26
2022-12-12T12:14:47.828Z,13.23
2022-12-12T12:16:17.284Z,13.20
2022-12-12T12:17:26.475Z,13.20
2022-12-12T12:18:56.501Z,13.16
2022-12-12T12:20:21.190Z,13.14
2022-12-12T12:21:43.621Z,13.20
2022-12-12T12:22:58.125Z,13.22
2022-12-12T12:24:20.459Z,13.30
2022-12-12T12:25:33.306Z,13.33
2022-12-12T12:27:09.180Z,13.35
2022-12-12T12:28:34.843Z,13.39
2022-12-12T12:29:43.142Z,13.33
2022-12-12T12:31:10.527Z,13.31
2022-12-12T12:32:25.546Z,13.37
2022-12-12T12:33:39.246Z,13.48
2022-12-12T12:35:21.167Z,13.45
2022-12-12T12:36:26.333Z,13.46
2022-12-12T12:37:59.103Z,13.45
2022-12-12T12:39:30.119Z,13.55
2022-12-12T12:40:38.389Z,13.60
2022-12-12T12:41:45.130Z,13.56
2022-12-12T12:43:27.778Z,13.52
2022-12-12T12:44:59.892Z,13.53
2022-12-12T12:46:15.277Z,13.50
2022-12-12T12:47:19.703Z,13.45
2022-12-12T12:48:53.639Z,13.36
2022-12-12T12:50:01.894Z,13.27
2022-12-12T12:51:31.145Z,13.10
2022-12-12T12:52:36.428Z,13.06
2022-12-12T12:53:46.369Z,13.07
2022-12-12T12:54:49.250Z,13.08
2022-12-12T12:55:58.983Z,13.05
2022-12-12T12:57:25.916Z,13.02
2022-12-12T12:58:36.120Z,13.05
2022-12-12T12:59:43.822Z,13.12
2022-12-12T13:00:51.862Z,13.12
2022-12-12T13:01:55.714Z,13.13
2022-12-12T13:03:19.096Z,13.26
2022-12-12T13:04:31.809Z,13.37
2022-12-12T13:05:36.597Z,13.37
2022-12-12T13:06:46.177Z,13.39
2022-12-12T13:07:47.741Z,13.44
2022-12-12T13:09:03.225Z,13.49
2022-12-12T13:10:30.827Z,13.53
2022-12-12T13:11:39.859Z,13.53
2022-12-12T13:12:50.069Z,13.58
2022-12-12T13:13:54.985Z,13.64
2022-12-12T13:15:24.320Z,13.70
2022-12-12T13:16:32.769Z,13.68
2022-12-12T13:17:48.577Z,13.64
2022-12-12T13:19:05.625Z,13.56
2022-12-12T13:20:16.689Z,13.51
2022-12-12T13:21:30.819Z,13.48
2022-12-12T13:22:54.403Z,13.41
2022-12-12T13:24:05.936Z,13.39
2022-12-12T13:25:37.664Z,13.32
2022-12-12T13:26:52.145Z,13.20
2022-12-12T13:27:57.658Z,13.15
2022-12-12T13:29:07.690Z,13.06
2022-12-12T13:30:22.745Z,13.08
2022-12-12T13:31:55.941Z,13.12
2022-12-12T13:33:20.518Z,13.05
2022-12-12T13:34:26.145Z,13.05
2022-12-12T13:35:45.890Z,13.08
2022-12-12T13:36:50.295Z,13.10
2022-12-12T13:37:53.917Z,13.07
2022-12-12T13:38:57.594Z,13.09
2022-12-12T13:40:01.560Z,13.08
2022-12-12T13:41:06.653Z,13.11
2022-12-12T13:42:10.697Z,13.11
2022-12-12T13:43:48.160Z,13.18
2022-12-12T13:44:50.391Z,13.17
2022-12-12T13:45:52.028Z,13.20
2022-12-12T13:46:53.655Z,13.22
2022-12-12T13:48:10.010Z,13.19
2022-12-12T13:49:23.432Z,13.11
2022-12-12T13:50:25.112Z,13.04
2022-12-12T13:51:33.555Z,13.14
2022-12-12T13:52:41.114Z,13.13
2022-12-12T13:53:43.316Z,13.16
2022-12-12T13:54:47.731Z,13.09
2022-12-12T13:55:49.347Z,13.15
2022-12-12T13:56:53.820Z,13.08
2022-12-12T13:58:08.255Z,13.01
2022-12-12T13:59:27.713Z,12.95
2022-12-12T14:00:30.550Z,12.95
2022-12-12T14:01:35.614Z,13.00
2022-12-12T14:02:44.205Z,12.89
2022-12-12T14:03:46.826Z,12.80
2022-12-12T14:05:13.167Z,12.76
2022-12-12T14:06:19.281Z,12.71
2022-12-12T14:07:27.630Z,12.70
2022-12-12T14:08:34.826Z,12.66
2022-12-12T14:09:48.648Z,12.60
2022-12-12T14:10:56.049Z,12.56
2022-12-12T14:12:16.033Z,12.58
2022-12-12T14:13:26.704Z,12.59
2022-12-12T14:14:28.938Z,12.61
2022-12-12T14:15:32.099Z,12.64
2022-12-12T14:16:35.166Z,12.66
2022-12-12T14:17:42.545Z,12.65
2022-12-12T14:18:50.603Z,12.62
2022-12-12T14:19:54.817Z,12.58
2022-12-12T14:21:03.530Z,12.55
2022-12-12T14:22:05.271Z,12.53
2022-12-12T14:23:23.873Z,12.49
2022-12-12T14:24:34.909Z,12.45
2022-12-12T14:25:38.437Z,12.40
2022-12-12T14:26:39.942Z,12.35
2022-12-12T14:27:50.355Z,12.35
2022-12-12T14:29:16.417Z,12.29
2022-12-12T14:30:59.254Z,12.24
2022-12-12T14:32:13.175Z,12.22
2022-12-12T14:33:17.778Z,12.19
2022-12-12T14:34:46.415Z,12.19
2022-12-12T14:36:26.395Z,12.17
2022-12-12T14:37:59.835Z,12.14
2022-12-12T14:39:39.538Z,12.14
2022-12-12T14:40:46.143Z,12.14
2022-12-12T14:41:48.325Z,12.12
2022-12-12T14:43:15.901Z,12.13
2022-12-12T14:44:37.463Z,12.19
2022-12-12T14:45:51.859Z,12.18
2022-12-12T14:46:53.583Z,12.13
2022-12-12T14:48:21.370Z,12.08
2022-12-12T14:49:22.985Z,12.04
2022-12-12T14:50:24.526Z,12.06
2022-12-12T14:51:30.139Z,12.02
2022-12-12T14:52:31.886Z,11.99
2022-12-12T14:53:39.124Z,11.96
2022-12-12T14:54:40.844Z,11.95
2022-12-12T14:56:06.852Z,11.93